Terminal Aerodrome Forecast
Issued by NWS Newport/Morehead City, NC

Home | Current Version | Previous Version | Text Only | Print | Product List | Glossary Off
Versions: 1 2 3 4 5 6 7 8 9 10 11 12 13

000
FTUS42 KMHX 180522
TAFEWN
TAF
KEWN 180522Z 1806/1906 18009G14KT P6SM VCSH SCT025 BKN070
     FM181100 17007KT P6SM VCSH BKN070
     FM181200 17007KT 5SM SHRA VCTS SCT015 OVC035CB
     FM182000 17008G14KT 5SM SHRA OVC070
     FM190000 16009KT P6SM VCSH OVC035=

USA.gov is the U.S. government's official web portal to all federal, state and local government web resources and services.